createdAt,value
2019-05-13T00:00:37.956Z,20.70
2019-05-13T00:03:08.252Z,20.90
2019-05-13T00:05:38.632Z,21.03
2019-05-13T00:08:09.060Z,20.37
2019-05-13T00:10:39.621Z,19.50
2019-05-13T00:13:09.982Z,19.80
2019-05-13T00:15:40.411Z,19.60
2019-05-13T00:18:10.729Z,18.97
2019-05-13T00:20:41.136Z,19.60
2019-05-13T00:23:11.452Z,21.00
2019-05-13T00:25:44.217Z,20.60
2019-05-13T00:28:14.748Z,21.10
2019-05-13T00:30:46.231Z,19.17
2019-05-13T00:33:16.705Z,20.37
2019-05-13T00:35:47.123Z,18.47
2019-05-13T00:38:17.509Z,19.17
2019-05-13T00:40:47.901Z,20.37
2019-05-13T00:43:18.658Z,21.83
2019-05-13T00:45:48.977Z,20.07
2019-05-13T00:48:19.337Z,20.23
2019-05-13T00:50:49.702Z,19.10
2019-05-13T00:53:20.036Z,19.07
2019-05-13T00:55:50.446Z,17.40
2019-05-13T00:58:20.889Z,17.33
2019-05-13T01:00:51.185Z,18.00
2019-05-13T01:03:21.502Z,17.90
2019-05-13T01:05:53.529Z,16.53
2019-05-13T01:08:25.316Z,17.87
2019-05-13T01:10:55.604Z,17.80
2019-05-13T01:13:26.005Z,16.67
2019-05-13T01:15:56.359Z,16.40
2019-05-13T01:18:26.715Z,17.73
2019-05-13T01:20:57.419Z,16.37
2019-05-13T01:23:27.837Z,15.77
2019-05-13T01:25:58.220Z,16.00
2019-05-13T01:28:31.065Z,16.20
2019-05-13T01:31:01.421Z,16.07
2019-05-13T01:33:31.765Z,16.20
2019-05-13T01:36:05.252Z,15.23
2019-05-13T01:38:35.375Z,15.00
2019-05-13T01:41:05.896Z,15.10
2019-05-13T01:43:36.431Z,15.50
2019-05-13T01:46:06.797Z,14.40
2019-05-13T01:48:37.120Z,13.87
2019-05-13T01:51:07.511Z,13.37
2019-05-13T01:53:37.893Z,14.77
2019-05-13T01:56:08.864Z,14.97
2019-05-13T01:58:39.310Z,14.63
2019-05-13T02:01:09.657Z,14.73
2019-05-13T02:03:39.977Z,15.50
2019-05-13T02:06:10.364Z,15.70
2019-05-13T02:08:41.071Z,17.10
2019-05-13T02:11:13.284Z,17.77
2019-05-13T02:13:44.700Z,18.17
2019-05-13T02:16:15.731Z,17.77
2019-05-13T02:18:46.095Z,18.80
2019-05-13T02:21:17.549Z,17.33
2019-05-13T02:23:47.862Z,19.70
2019-05-13T02:26:18.219Z,17.00
2019-05-13T02:28:48.643Z,17.90
2019-05-13T02:31:31.980Z,17.50
2019-05-13T02:33:53.070Z,17.07
2019-05-13T02:36:23.339Z,17.50
2019-05-13T02:38:53.779Z,16.20
2019-05-13T02:41:24.177Z,16.53
2019-05-13T02:43:54.673Z,16.07
2019-05-13T02:46:25.031Z,15.40
2019-05-13T02:48:55.367Z,16.13
2019-05-13T02:51:25.765Z,15.77
2019-05-13T02:53:56.133Z,14.33
2019-05-13T02:56:26.485Z,13.90
2019-05-13T02:58:56.914Z,13.90
2019-05-13T03:01:27.288Z,14.70
2019-05-13T03:03:57.675Z,14.10
2019-05-13T03:06:28.178Z,14.30
2019-05-13T03:08:58.663Z,14.27
2019-05-13T03:11:28.950Z,14.20
2019-05-13T03:13:59.359Z,13.70
2019-05-13T03:16:52.425Z,14.00
2019-05-13T03:19:22.922Z,12.87
2019-05-13T03:21:53.280Z,13.50
2019-05-13T03:24:23.832Z,12.07
2019-05-13T03:26:54.387Z,13.10
2019-05-13T03:29:24.678Z,10.77
2019-05-13T03:31:56.437Z,12.77
2019-05-13T03:34:27.882Z,12.60
2019-05-13T03:36:58.519Z,11.33
2019-05-13T03:39:33.202Z,12.00
2019-05-13T03:42:04.525Z,13.17
2019-05-13T03:44:35.675Z,11.93
2019-05-13T03:47:06.011Z,11.63
2019-05-13T03:49:37.678Z,11.00
2019-05-13T03:52:08.667Z,10.93
2019-05-13T03:54:39.342Z,11.50
2019-05-13T03:57:12.590Z,11.57
2019-05-13T03:59:43.741Z,11.30
2019-05-13T04:02:14.417Z,10.50
2019-05-13T04:04:44.729Z,10.30
2019-05-13T04:07:15.368Z,10.70
2019-05-13T04:09:46.103Z,11.43
2019-05-13T04:12:16.513Z,11.80
2019-05-13T04:14:47.286Z,10.77
2019-05-13T04:17:17.844Z,10.63
2019-05-13T04:19:48.299Z,11.97
2019-05-13T04:22:18.616Z,11.67
2019-05-13T04:24:52.753Z,11.40
2019-05-13T04:27:23.347Z,11.67
2019-05-13T04:29:54.302Z,10.50
2019-05-13T04:32:28.699Z,12.10
2019-05-13T04:34:57.360Z,9.67
2019-05-13T04:37:27.745Z,9.67
2019-05-13T04:39:58.950Z,7.90
2019-05-13T04:42:33.109Z,7.60
2019-05-13T04:45:03.144Z,8.10
2019-05-13T04:47:33.750Z,8.03
2019-05-13T04:50:04.114Z,8.53
2019-05-13T04:52:34.710Z,9.43
2019-05-13T04:55:05.173Z,10.03
2019-05-13T04:57:35.637Z,9.40
2019-05-13T05:00:07.181Z,10.10
2019-05-13T05:02:56.546Z,9.80
2019-05-13T05:05:46.247Z,10.97
2019-05-13T05:08:28.333Z,10.53
2019-05-13T05:11:15.246Z,10.80
2019-05-13T05:14:24.135Z,11.53
2019-05-13T05:17:35.129Z,11.10
2019-05-13T05:20:33.322Z,11.13
2019-05-13T05:23:46.651Z,10.60
2019-05-13T05:26:55.181Z,10.27
2019-05-13T05:29:32.517Z,9.07
2019-05-13T05:32:28.356Z,10.40
2019-05-13T05:35:52.003Z,9.90
2019-05-13T05:38:52.176Z,9.60
2019-05-13T05:41:25.376Z,10.10
2019-05-13T05:43:57.917Z,10.30
2019-05-13T05:46:32.306Z,10.83
2019-05-13T05:49:08.832Z,9.77
2019-05-13T05:51:41.902Z,9.67
2019-05-13T05:54:14.761Z,9.00
2019-05-13T05:56:45.761Z,8.90
2019-05-13T06:02:57.445Z,9.37
2019-05-13T06:05:28.433Z,9.60
2019-05-13T06:07:58.830Z,9.47
2019-05-13T06:10:45.799Z,9.27
2019-05-13T06:13:02.766Z,8.33
2019-05-13T06:15:33.855Z,8.63
2019-05-13T06:18:04.291Z,7.73
2019-05-13T06:20:34.658Z,8.80
2019-05-13T06:23:05.071Z,8.63
2019-05-13T06:25:35.427Z,8.73
2019-05-13T06:28:05.925Z,8.67
2019-05-13T06:30:36.447Z,7.47
2019-05-13T06:33:07.198Z,8.20
2019-05-13T06:35:37.990Z,7.57
2019-05-13T06:38:08.357Z,8.30
2019-05-13T06:40:38.665Z,8.20
2019-05-13T06:43:08.955Z,8.00
2019-05-13T06:45:39.382Z,7.80
2019-05-13T06:48:11.720Z,7.53
2019-05-13T06:50:41.875Z,8.27
2019-05-13T06:53:12.812Z,8.20
2019-05-13T06:55:43.175Z,8.77
2019-05-13T06:58:13.500Z,8.50
2019-05-13T07:00:43.939Z,9.67
2019-05-13T07:03:14.588Z,9.70
2019-05-13T07:05:45.800Z,9.37
2019-05-13T07:08:17.667Z,10.07
2019-05-13T07:10:48.010Z,9.10
2019-05-13T07:13:21.777Z,9.50
2019-05-13T07:15:52.287Z,9.93
2019-05-13T07:18:22.759Z,8.47
2019-05-13T07:20:53.278Z,10.57
2019-05-13T07:23:23.778Z,8.97
2019-05-13T07:25:54.076Z,10.23
2019-05-13T07:28:24.454Z,8.67
2019-05-13T07:30:54.830Z,9.00
2019-05-13T07:33:25.272Z,9.17
2019-05-13T07:35:58.545Z,9.00
2019-05-13T07:38:29.349Z,9.77
2019-05-13T07:41:04.215Z,8.60
2019-05-13T07:43:35.830Z,8.70
2019-05-13T07:46:06.257Z,9.10
2019-05-13T07:48:36.603Z,10.37
2019-05-13T07:51:07.050Z,9.60
2019-05-13T07:53:37.387Z,8.87
2019-05-13T07:56:07.709Z,10.13
2019-05-13T07:58:38.107Z,10.87
2019-05-13T08:01:08.480Z,9.97
2019-05-13T08:03:38.796Z,10.40
2019-05-13T08:06:11.120Z,9.50
2019-05-13T08:08:41.807Z,9.27
2019-05-13T08:11:12.963Z,10.40
2019-05-13T08:13:44.567Z,11.73
2019-05-13T08:16:15.180Z,10.40
2019-05-13T08:18:45.601Z,10.73
2019-05-13T08:21:15.975Z,10.53
2019-05-13T08:23:46.452Z,10.83
2019-05-13T08:26:17.267Z,9.60
2019-05-13T08:29:00.406Z,10.47
2019-05-13T08:31:21.640Z,9.90
2019-05-13T08:33:52.069Z,10.50
2019-05-13T08:36:23.524Z,9.30
2019-05-13T08:38:53.975Z,10.83
2019-05-13T08:41:24.603Z,9.53
2019-05-13T08:43:55.581Z,9.97
2019-05-13T08:46:26.197Z,10.07
2019-05-13T08:48:57.036Z,10.50
2019-05-13T08:51:32.307Z,9.80
2019-05-13T08:54:03.535Z,11.00
2019-05-13T08:56:33.971Z,8.97
2019-05-13T08:59:06.460Z,8.90
2019-05-13T09:01:36.886Z,9.10
2019-05-13T09:04:07.228Z,9.53
2019-05-13T09:06:37.574Z,9.77
2019-05-13T09:09:11.519Z,9.43
2019-05-13T09:11:42.285Z,11.07
2019-05-13T09:14:13.048Z,16.13
2019-05-13T09:16:43.520Z,8.60
2019-05-13T09:19:16.310Z,22.53
2019-05-13T09:21:46.026Z,10.10
2019-05-13T09:24:24.592Z,8.07
2019-05-13T09:26:48.459Z,9.07
2019-05-13T09:29:18.908Z,9.70
2019-05-13T09:31:51.768Z,11.23
2019-05-13T09:34:22.129Z,9.20
2019-05-13T09:36:52.664Z,10.20
2019-05-13T09:39:23.129Z,8.80
2019-05-13T09:41:53.563Z,9.83
2019-05-13T09:44:23.919Z,10.10
2019-05-13T09:46:54.431Z,10.83
2019-05-13T09:49:24.827Z,10.40
2019-05-13T09:51:55.113Z,9.50
2019-05-13T09:54:25.478Z,8.87
2019-05-13T09:56:55.848Z,9.47
2019-05-13T09:59:26.071Z,19.37
2019-05-13T10:01:56.282Z,32.73
2019-05-13T10:04:26.375Z,8.90
2019-05-13T10:06:56.672Z,10.37
2019-05-13T10:09:26.791Z,9.23
2019-05-13T10:11:56.892Z,9.03
2019-05-13T10:14:27.201Z,9.40
2019-05-13T10:16:57.441Z,9.93
2019-05-13T10:19:27.582Z,9.63
2019-05-13T10:21:57.889Z,9.20
2019-05-13T10:24:28.241Z,8.53
2019-05-13T10:26:58.415Z,9.50
2019-05-13T10:29:31.534Z,9.60
2019-05-13T10:32:02.630Z,9.50
2019-05-13T10:34:34.222Z,10.10
2019-05-13T10:37:05.797Z,11.13
2019-05-13T10:39:36.287Z,9.83
2019-05-13T10:42:06.629Z,11.33
2019-05-13T10:44:37.080Z,10.17
2019-05-13T10:47:07.495Z,10.93
2019-05-13T10:49:37.851Z,11.80
2019-05-13T10:52:08.654Z,11.97
2019-05-13T10:54:41.095Z,9.47
2019-05-13T10:57:13.713Z,9.63
2019-05-13T10:59:43.660Z,9.40
2019-05-13T11:02:14.291Z,9.20
2019-05-13T11:04:44.791Z,9.07
2019-05-13T11:07:15.246Z,7.63
2019-05-13T11:09:45.641Z,7.77
2019-05-13T11:12:16.006Z,8.20
2019-05-13T11:14:46.773Z,9.10
2019-05-13T11:17:23.279Z,8.23
2019-05-13T11:19:50.612Z,7.33
2019-05-13T11:22:22.467Z,8.50
2019-05-13T11:24:53.031Z,7.83
2019-05-13T11:27:23.635Z,8.27
2019-05-13T11:29:53.987Z,8.43
2019-05-13T11:32:24.299Z,8.27
2019-05-13T11:34:54.756Z,9.23
2019-05-13T11:37:25.470Z,8.53
2019-05-13T11:39:55.832Z,7.90
2019-05-13T11:42:26.312Z,8.00
2019-05-13T11:44:56.619Z,7.43
2019-05-13T11:47:27.339Z,7.90
2019-05-13T11:49:57.876Z,8.30
2019-05-13T11:52:28.402Z,8.40
2019-05-13T11:54:58.813Z,8.00
2019-05-13T11:57:31.044Z,8.53
2019-05-13T12:00:02.534Z,9.10
2019-05-13T12:02:33.424Z,9.00
2019-05-13T12:05:04.166Z,9.20
2019-05-13T12:07:34.765Z,9.30
2019-05-13T12:15:32.794Z,10.17
2019-05-13T12:17:52.354Z,9.47
2019-05-13T12:20:21.622Z,8.20
2019-05-13T12:22:52.139Z,9.00
2019-05-13T12:25:22.686Z,8.67
2019-05-13T12:27:53.095Z,7.70
2019-05-13T12:30:23.444Z,7.83
2019-05-13T12:32:53.740Z,7.33
2019-05-13T12:35:43.749Z,8.00
2019-05-13T12:38:14.050Z,7.70
2019-05-13T12:40:44.352Z,7.90
2019-05-13T12:43:14.904Z,7.47
2019-05-13T12:45:45.526Z,8.60
2019-05-13T12:48:15.915Z,7.63
2019-05-13T12:50:46.360Z,7.93
2019-05-13T12:53:16.734Z,7.83
2019-05-13T12:55:52.694Z,8.47
2019-05-13T12:58:19.385Z,9.00
2019-05-13T13:00:52.920Z,8.20
2019-05-13T13:03:23.143Z,8.73
2019-05-13T13:05:54.054Z,8.63
2019-05-13T13:10:56.539Z,8.73
2019-05-13T13:13:54.070Z,8.10
2019-05-13T13:16:03.238Z,8.70
2019-05-13T13:18:31.166Z,9.77
2019-05-13T13:21:06.978Z,7.67
2019-05-13T13:23:34.353Z,9.10
2019-05-13T13:26:13.716Z,9.70
2019-05-13T13:28:36.536Z,10.60
2019-05-13T13:31:06.766Z,10.93
2019-05-13T13:33:36.921Z,9.93
2019-05-13T13:36:07.078Z,9.67
2019-05-13T13:38:37.407Z,9.67
2019-05-13T13:41:07.651Z,9.63
2019-05-13T13:43:38.046Z,9.27
2019-05-13T13:48:43.721Z,9.77
2019-05-13T13:51:14.132Z,9.37
2019-05-13T13:53:45.031Z,9.57
2019-05-13T13:56:15.240Z,9.30
2019-05-13T13:58:45.464Z,9.70
2019-05-13T14:01:19.771Z,9.93
2019-05-13T14:03:47.641Z,10.50
2019-05-13T14:06:44.448Z,8.17
2019-05-13T14:07:12.875Z,9.50
2019-05-13T14:07:20.454Z,10.37
2019-05-13T14:08:51.933Z,12.00
2019-05-13T14:11:23.278Z,10.67
2019-05-13T14:13:55.588Z,10.60
2019-05-13T14:16:32.534Z,11.00
2019-05-13T14:18:58.000Z,10.20
2019-05-13T14:21:28.221Z,17.50
2019-05-13T14:23:58.241Z,25.80
2019-05-13T14:26:28.675Z,13.43
2019-05-13T14:28:58.999Z,17.80
2019-05-13T14:31:31.694Z,12.70
2019-05-13T14:34:03.653Z,17.10
2019-05-13T14:36:34.077Z,17.80
2019-05-13T14:39:05.310Z,13.67
2019-05-13T14:41:35.598Z,16.67
2019-05-13T14:44:05.899Z,12.53
2019-05-13T14:46:47.266Z,10.17
2019-05-13T14:49:08.212Z,9.47
2019-05-13T14:51:38.413Z,10.83
2019-05-13T14:54:08.654Z,9.90
2019-05-13T14:56:39.122Z,11.67
2019-05-13T14:59:11.675Z,11.83
2019-05-13T15:01:41.580Z,14.90
2019-05-13T15:04:12.364Z,11.07
2019-05-13T15:06:42.897Z,12.63
2019-05-13T15:09:13.062Z,10.90
2019-05-13T15:11:43.396Z,9.60
2019-05-13T15:14:13.511Z,11.33
2019-05-13T15:17:00.264Z,11.73
2019-05-13T15:19:15.659Z,11.90
2019-05-13T15:21:46.461Z,12.13
2019-05-13T15:24:16.829Z,12.17
2019-05-13T15:26:47.464Z,10.70
2019-05-13T15:29:18.140Z,13.10
2019-05-13T15:31:48.671Z,11.77
2019-05-13T15:34:18.855Z,13.33
2019-05-13T15:36:50.762Z,14.07
2019-05-13T15:39:20.980Z,13.30
2019-05-13T15:41:52.375Z,12.13
2019-05-13T15:44:23.181Z,12.43
2019-05-13T15:46:53.346Z,12.70
2019-05-13T15:49:23.407Z,11.70
2019-05-13T15:51:54.596Z,12.17
2019-05-13T15:54:24.780Z,12.10
2019-05-13T15:56:54.922Z,13.33
2019-05-13T15:59:25.043Z,12.67
2019-05-13T16:01:55.305Z,11.10
2019-05-13T16:04:25.478Z,15.83
2019-05-13T16:06:55.737Z,14.43
2019-05-13T16:09:25.897Z,13.30
2019-05-13T16:11:56.123Z,13.50
2019-05-13T16:14:26.405Z,12.40
2019-05-13T16:16:56.714Z,12.03
2019-05-13T16:19:27.235Z,16.17
2019-05-13T16:21:57.484Z,15.07
2019-05-13T16:24:27.770Z,15.10
2019-05-13T16:26:57.970Z,14.80
2019-05-13T16:29:28.130Z,14.57
2019-05-13T16:31:58.650Z,13.90
2019-05-13T16:34:31.725Z,14.87
2019-05-13T16:37:02.333Z,14.10
2019-05-13T16:39:32.927Z,15.80
2019-05-13T16:42:03.236Z,14.13
2019-05-13T16:44:33.543Z,14.77
2019-05-13T16:47:03.893Z,14.10
2019-05-13T16:49:34.154Z,15.07
2019-05-13T16:52:04.669Z,15.33
2019-05-13T16:54:34.894Z,13.90
2019-05-13T16:57:05.116Z,14.50
2019-05-13T16:59:35.362Z,15.63
2019-05-13T17:02:05.624Z,15.33
2019-05-13T17:04:36.779Z,14.50
2019-05-13T17:07:07.020Z,15.33
2019-05-13T17:09:37.177Z,15.40
2019-05-13T17:12:07.389Z,15.67
2019-05-13T17:14:37.454Z,16.20
2019-05-13T17:17:07.623Z,15.50
2019-05-13T17:19:37.815Z,14.87
2019-05-13T17:22:08.084Z,14.80
2019-05-13T17:24:38.185Z,16.43
2019-05-13T17:27:08.361Z,16.70
2019-05-13T17:29:38.538Z,17.17
2019-05-13T17:32:08.831Z,17.00
2019-05-13T17:34:39.374Z,17.80
2019-05-13T17:37:11.753Z,19.50
2019-05-13T17:39:41.713Z,18.90
2019-05-13T17:42:12.395Z,18.60
2019-05-13T17:44:46.344Z,19.13
2019-05-13T17:47:15.105Z,17.40
2019-05-13T17:49:45.345Z,17.00
2019-05-13T17:52:16.649Z,17.87
2019-05-13T17:54:47.241Z,20.00
2019-05-13T17:57:21.553Z,20.90
2019-05-13T17:59:52.250Z,16.93
2019-05-13T18:02:22.486Z,19.40
2019-05-13T18:04:52.583Z,18.80
2019-05-13T18:07:22.879Z,18.60
2019-05-13T18:09:53.156Z,19.40
2019-05-13T18:12:23.422Z,18.60
2019-05-13T18:14:53.740Z,19.10
2019-05-13T18:17:25.013Z,19.80
2019-05-13T18:19:55.145Z,20.10
2019-05-13T18:22:25.417Z,21.60
2019-05-13T18:24:55.602Z,20.10
2019-05-13T18:27:25.875Z,20.67
2019-05-13T18:29:56.137Z,19.97
2019-05-13T18:32:26.687Z,20.30
2019-05-13T18:34:56.955Z,19.20
2019-05-13T18:37:28.250Z,19.13
2019-05-13T18:39:58.447Z,20.53
2019-05-13T18:42:28.585Z,19.80
2019-05-13T18:44:58.841Z,20.37
2019-05-13T18:47:31.105Z,18.90
2019-05-13T18:50:02.372Z,20.40
2019-05-13T18:52:32.800Z,19.03
2019-05-13T18:55:08.022Z,18.87
2019-05-13T18:57:42.034Z,18.60
2019-05-13T19:00:12.484Z,18.80
2019-05-13T19:02:42.732Z,19.30
2019-05-13T19:05:13.756Z,17.87
2019-05-13T19:07:43.862Z,17.83
2019-05-13T19:10:14.070Z,19.40
2019-05-13T19:12:44.384Z,18.70
2019-05-13T19:15:14.782Z,19.67
2019-05-13T19:17:44.865Z,18.90
2019-05-13T19:20:15.650Z,18.87
2019-05-13T19:22:45.798Z,17.43
2019-05-13T19:25:45.593Z,18.00
2019-05-13T19:28:16.077Z,19.10
2019-05-13T19:30:46.265Z,17.00
2019-05-13T19:33:16.584Z,17.80
2019-05-13T19:35:46.995Z,18.50
2019-05-13T19:38:17.100Z,17.30
2019-05-13T19:40:47.285Z,17.57
2019-05-13T19:43:18.699Z,16.97
2019-05-13T19:45:49.096Z,18.80
2019-05-13T19:48:21.701Z,19.60
2019-05-13T19:50:52.140Z,20.20
2019-05-13T19:53:22.620Z,19.20
2019-05-13T19:55:52.892Z,19.50
2019-05-13T19:58:23.621Z,19.90
2019-05-13T20:00:53.898Z,18.90
2019-05-13T20:03:24.141Z,20.33
2019-05-13T20:05:54.460Z,19.70
2019-05-13T20:08:24.913Z,18.27
2019-05-13T20:10:55.165Z,20.43
2019-05-13T20:13:25.414Z,18.13
2019-05-13T20:15:55.842Z,19.57
2019-05-13T20:18:26.634Z,16.10
2019-05-13T20:20:56.955Z,18.67
2019-05-13T20:23:27.238Z,17.80
2019-05-13T20:25:57.879Z,17.53
2019-05-13T20:28:28.214Z,18.07
2019-05-13T20:30:58.595Z,18.07
2019-05-13T20:33:31.629Z,17.40
2019-05-13T20:36:01.697Z,19.20
2019-05-13T20:38:32.139Z,16.30
2019-05-13T20:41:02.369Z,17.23
2019-05-13T20:43:33.043Z,18.10
2019-05-13T20:46:03.392Z,16.27
2019-05-13T20:48:33.674Z,15.80
2019-05-13T20:51:03.942Z,17.07
2019-05-13T20:53:34.253Z,17.00
2019-05-13T20:56:04.750Z,16.50
2019-05-13T20:58:36.106Z,15.80
2019-05-13T21:01:06.688Z,15.40
2019-05-13T21:03:37.098Z,15.60
2019-05-13T21:06:07.352Z,14.73
2019-05-13T21:08:37.714Z,14.63
2019-05-13T21:11:08.025Z,14.77
2019-05-13T21:13:38.432Z,14.47
2019-05-13T21:16:08.797Z,15.33
2019-05-13T21:18:41.835Z,14.40
2019-05-13T21:21:11.807Z,15.00
2019-05-13T21:23:42.336Z,15.90
2019-05-13T21:26:15.417Z,15.30
2019-05-13T21:28:44.780Z,13.40
2019-05-13T21:31:15.079Z,13.90
2019-05-13T21:33:45.442Z,15.23
2019-05-13T21:36:16.008Z,14.33
2019-05-13T21:38:46.631Z,15.37
2019-05-13T21:41:17.608Z,15.03
2019-05-13T21:43:47.690Z,15.70
2019-05-13T21:46:17.948Z,14.77
2019-05-13T21:48:48.278Z,15.07
2019-05-13T21:51:18.587Z,16.17
2019-05-13T21:53:48.905Z,15.20
2019-05-13T21:56:22.916Z,15.00
2019-05-13T21:58:52.133Z,14.60
2019-05-13T22:01:23.389Z,15.27
2019-05-13T22:03:53.865Z,15.03
2019-05-13T22:06:24.121Z,14.13
2019-05-13T22:08:54.372Z,13.70
2019-05-13T22:11:24.558Z,14.47
2019-05-13T22:13:54.675Z,15.07
2019-05-13T22:16:25.067Z,15.20
2019-05-13T22:18:55.269Z,15.70
2019-05-13T22:21:25.498Z,15.90
2019-05-13T22:23:55.672Z,15.37
2019-05-13T22:26:25.903Z,17.27
2019-05-13T22:28:55.969Z,17.87
2019-05-13T22:31:26.272Z,21.07
2019-05-13T22:33:56.571Z,22.90
2019-05-13T22:36:26.779Z,22.40
2019-05-13T22:38:57.027Z,21.57
2019-05-13T22:41:27.229Z,20.20
2019-05-13T22:43:58.879Z,21.40
2019-05-13T22:46:31.941Z,24.63
2019-05-13T22:49:01.600Z,24.00
2019-05-13T22:51:42.730Z,23.93
2019-05-13T22:54:12.943Z,21.77
2019-05-13T22:56:43.170Z,22.53
2019-05-13T22:59:13.938Z,21.27
2019-05-13T23:01:45.088Z,20.37
2019-05-13T23:04:15.268Z,18.70
2019-05-13T23:06:45.351Z,17.90
2019-05-13T23:09:15.546Z,17.57
2019-05-13T23:11:45.744Z,17.33
2019-05-13T23:14:15.993Z,16.73
2019-05-13T23:16:46.310Z,17.50
2019-05-13T23:19:16.623Z,16.77
2019-05-13T23:21:46.913Z,16.60
2019-05-13T23:24:16.988Z,16.60
2019-05-13T23:26:47.171Z,17.27
2019-05-13T23:29:17.524Z,16.37
2019-05-13T23:31:47.773Z,17.53
2019-05-13T23:34:18.418Z,16.37
2019-05-13T23:36:48.766Z,15.80
2019-05-13T23:39:19.025Z,15.80
2019-05-13T23:41:51.994Z,16.43
2019-05-13T23:44:27.679Z,17.37
2019-05-13T23:46:54.087Z,18.13
2019-05-13T23:49:24.641Z,14.97
2019-05-13T23:51:55.112Z,14.60
2019-05-13T23:54:25.426Z,14.70
2019-05-13T23:56:55.737Z,14.50
2019-05-13T23:59:26.073Z,14.40
